sensor_id;sensor_type;location;lat;lon;timestamp;pressure;altitude;pressure_sealevel;temperature;humidity
41636;BME280;27623;51.966;4.602;2023-02-08T00:01:31;63394.09;;;2.78;79.71
41636;BME280;27623;51.966;4.602;2023-02-08T00:03:57;63448.22;;;2.96;77.10
41636;BME280;27623;51.966;4.602;2023-02-08T00:06:22;63453.78;;;2.96;77.12
41636;BME280;27623;51.966;4.602;2023-02-08T00:08:47;63411.69;;;2.78;77.50
41636;BME280;27623;51.966;4.602;2023-02-08T00:11:13;63386.13;;;2.45;79.27
41636;BME280;27623;51.966;4.602;2023-02-08T00:13:39;63395.91;;;2.82;77.97
41636;BME280;27623;51.966;4.602;2023-02-08T00:16:06;63445.34;;;2.91;76.82
41636;BME280;27623;51.966;4.602;2023-02-08T00:18:31;63383.63;;;2.59;77.94
41636;BME280;27623;51.966;4.602;2023-02-08T00:20:59;63441.34;;;2.78;77.34
41636;BME280;27623;51.966;4.602;2023-02-08T00:23:25;63409.03;;;2.83;76.65
41636;BME280;27623;51.966;4.602;2023-02-08T00:25:50;63423.19;;;2.70;76.36
41636;BME280;27623;51.966;4.602;2023-02-08T00:28:17;63414.56;;;2.69;76.86
41636;BME280;27623;51.966;4.602;2023-02-08T00:30:43;63409.34;;;2.66;77.47
41636;BME280;27623;51.966;4.602;2023-02-08T00:33:09;63418.88;;;2.66;77.36
41636;BME280;27623;51.966;4.602;2023-02-08T00:35:34;63413.13;;;2.70;77.13
41636;BME280;27623;51.966;4.602;2023-02-08T00:38:00;63382.19;;;2.53;78.27
41636;BME280;27623;51.966;4.602;2023-02-08T00:40:26;63356.81;;;2.29;79.64
41636;BME280;27623;51.966;4.602;2023-02-08T00:42:51;63375.34;;;2.41;79.23
41636;BME280;27623;51.966;4.602;2023-02-08T00:45:17;63411.44;;;2.40;80.10
41636;BME280;27623;51.966;4.602;2023-02-08T00:47:42;63399.53;;;2.29;79.93
41636;BME280;27623;51.966;4.602;2023-02-08T00:50:09;63405.34;;;2.46;80.15
41636;BME280;27623;51.966;4.602;2023-02-08T00:52:37;63395.84;;;2.61;78.29
41636;BME280;27623;51.966;4.602;2023-02-08T00:55:04;63421.91;;;2.59;77.39
41636;BME280;27623;51.966;4.602;2023-02-08T00:57:34;63426.38;;;2.59;77.86
41636;BME280;27623;51.966;4.602;2023-02-08T00:59:59;63398.00;;;2.56;77.99
41636;BME280;27623;51.966;4.602;2023-02-08T01:02:25;63373.94;;;2.57;77.90
41636;BME280;27623;51.966;4.602;2023-02-08T01:04:50;63404.84;;;2.60;78.00
41636;BME280;27623;51.966;4.602;2023-02-08T01:07:15;63415.06;;;2.55;77.01
41636;BME280;27623;51.966;4.602;2023-02-08T01:09:41;63366.91;;;2.50;77.53
41636;BME280;27623;51.966;4.602;2023-02-08T01:12:06;63335.97;;;2.19;79.30
41636;BME280;27623;51.966;4.602;2023-02-08T01:14:32;63385.13;;;2.11;79.77
41636;BME280;27623;51.966;4.602;2023-02-08T01:16:58;63325.94;;;2.26;79.23
41636;BME280;27623;51.966;4.602;2023-02-08T01:19:23;63354.69;;;2.41;79.75
41636;BME280;27623;51.966;4.602;2023-02-08T01:21:49;63347.47;;;2.25;79.70
41636;BME280;27623;51.966;4.602;2023-02-08T01:24:17;63376.78;;;2.40;79.87
41636;BME280;27623;51.966;4.602;2023-02-08T01:26:42;63376.56;;;2.31;80.46
41636;BME280;27623;51.966;4.602;2023-02-08T01:29:07;63357.72;;;2.27;80.44
41636;BME280;27623;51.966;4.602;2023-02-08T01:31:36;63370.75;;;2.06;80.84
41636;BME280;27623;51.966;4.602;2023-02-08T01:34:02;63360.38;;;2.16;81.02
41636;BME280;27623;51.966;4.602;2023-02-08T01:36:29;63350.88;;;2.30;81.04
41636;BME280;27623;51.966;4.602;2023-02-08T01:38:55;63374.97;;;2.36;80.42
41636;BME280;27623;51.966;4.602;2023-02-08T01:41:24;63360.22;;;2.27;80.96
41636;BME280;27623;51.966;4.602;2023-02-08T01:46:43;63398.88;;;2.47;79.45
41636;BME280;27623;51.966;4.602;2023-02-08T01:49:19;63379.84;;;2.48;77.99
41636;BME280;27623;51.966;4.602;2023-02-08T01:54:17;63346.94;;;2.31;78.72
41636;BME280;27623;51.966;4.602;2023-02-08T01:56:45;63321.91;;;1.98;79.61
41636;BME280;27623;51.966;4.602;2023-02-08T01:59:35;63346.19;;;2.07;80.56
41636;BME280;27623;51.966;4.602;2023-02-08T02:02:06;63353.88;;;2.02;80.91
41636;BME280;27623;51.966;4.602;2023-02-08T02:04:34;63359.69;;;2.27;79.35
41636;BME280;27623;51.966;4.602;2023-02-08T02:07:00;63355.00;;;2.25;78.38
41636;BME280;27623;51.966;4.602;2023-02-08T02:12:07;63361.97;;;2.17;78.74
41636;BME280;27623;51.966;4.602;2023-02-08T02:14:37;63382.59;;;2.11;80.13
41636;BME280;27623;51.966;4.602;2023-02-08T02:17:03;63344.72;;;2.08;80.48
41636;BME280;27623;51.966;4.602;2023-02-08T02:19:51;63351.75;;;2.08;80.80
41636;BME280;27623;51.966;4.602;2023-02-08T02:33:01;63356.22;;;2.07;81.70
41636;BME280;27623;51.966;4.602;2023-02-08T02:35:45;63326.06;;;2.00;80.87
41636;BME280;27623;51.966;4.602;2023-02-08T02:41:22;63358.34;;;2.02;80.71
41636;BME280;27623;51.966;4.602;2023-02-08T02:44:36;63298.50;;;1.67;82.01
41636;BME280;27623;51.966;4.602;2023-02-08T02:47:36;63318.84;;;1.84;81.48
41636;BME280;27623;51.966;4.602;2023-02-08T02:50:22;63330.31;;;1.90;81.40
41636;BME280;27623;51.966;4.602;2023-02-08T02:53:06;63304.09;;;1.75;81.53
41636;BME280;27623;51.966;4.602;2023-02-08T02:55:40;63344.66;;;1.80;82.34
41636;BME280;27623;51.966;4.602;2023-02-08T02:58:08;63309.66;;;1.75;82.25
41636;BME280;27623;51.966;4.602;2023-02-08T03:00:35;63298.50;;;1.60;82.31
41636;BME280;27623;51.966;4.602;2023-02-08T03:03:00;63313.09;;;1.88;82.46
41636;BME280;27623;51.966;4.602;2023-02-08T03:05:28;63318.66;;;1.88;82.24
41636;BME280;27623;51.966;4.602;2023-02-08T03:08:45;63348.47;;;1.97;81.42
41636;BME280;27623;51.966;4.602;2023-02-08T03:11:22;63341.97;;;1.84;81.96
41636;BME280;27623;51.966;4.602;2023-02-08T03:19:51;63344.84;;;1.89;80.81
41636;BME280;27623;51.966;4.602;2023-02-08T03:22:27;63325.78;;;1.76;80.50
41636;BME280;27623;51.966;4.602;2023-02-08T03:25:06;63318.81;;;1.77;79.97
41636;BME280;27623;51.966;4.602;2023-02-08T03:32:41;63321.53;;;1.86;78.73
41636;BME280;27623;51.966;4.602;2023-02-08T03:38:10;63302.97;;;1.59;79.20
41636;BME280;27623;51.966;4.602;2023-02-08T03:40:45;63252.28;;;1.26;81.02
41636;BME280;27623;51.966;4.602;2023-02-08T03:43:28;63251.44;;;1.34;81.79
41636;BME280;27623;51.966;4.602;2023-02-08T03:48:33;63271.72;;;1.44;81.22
41636;BME280;27623;51.966;4.602;2023-02-08T03:51:02;63304.38;;;1.51;80.42
41636;BME280;27623;51.966;4.602;2023-02-08T03:53:29;63268.69;;;1.44;79.43
41636;BME280;27623;51.966;4.602;2023-02-08T03:56:04;63294.69;;;1.49;79.36
41636;BME280;27623;51.966;4.602;2023-02-08T03:58:54;63288.41;;;1.53;79.90
41636;BME280;27623;51.966;4.602;2023-02-08T04:01:28;63319.41;;;1.44;80.43
41636;BME280;27623;51.966;4.602;2023-02-08T04:03:55;63267.03;;;1.35;81.42
41636;BME280;27623;51.966;4.602;2023-02-08T04:06:22;63223.63;;;1.25;81.75
41636;BME280;27623;51.966;4.602;2023-02-08T04:08:47;63274.75;;;1.37;82.01
41636;BME280;27623;51.966;4.602;2023-02-08T04:11:13;63243.50;;;1.22;81.73
41636;BME280;27623;51.966;4.602;2023-02-08T04:13:38;63278.50;;;1.34;81.09
41636;BME280;27623;51.966;4.602;2023-02-08T04:16:04;63257.91;;;1.48;79.33
41636;BME280;27623;51.966;4.602;2023-02-08T04:18:29;63267.59;;;1.43;79.69
41636;BME280;27623;51.966;4.602;2023-02-08T04:20:55;63256.50;;;1.49;80.19
41636;BME280;27623;51.966;4.602;2023-02-08T04:23:20;63290.91;;;1.46;79.65
41636;BME280;27623;51.966;4.602;2023-02-08T04:25:48;63282.63;;;1.35;80.30
41636;BME280;27623;51.966;4.602;2023-02-08T04:28:13;63260.91;;;1.27;80.72
41636;BME280;27623;51.966;4.602;2023-02-08T04:30:38;63255.03;;;1.35;80.94
41636;BME280;27623;51.966;4.602;2023-02-08T04:33:04;63264.88;;;1.33;80.51
41636;BME280;27623;51.966;4.602;2023-02-08T04:35:29;63275.59;;;1.29;79.32
41636;BME280;27623;51.966;4.602;2023-02-08T04:37:55;63284.41;;;1.32;79.95
41636;BME280;27623;51.966;4.602;2023-02-08T04:40:20;63253.38;;;1.27;80.61
41636;BME280;27623;51.966;4.602;2023-02-08T04:42:45;63215.56;;;1.24;81.46
41636;BME280;27623;51.966;4.602;2023-02-08T04:45:11;63252.28;;;1.26;80.82
41636;BME280;27623;51.966;4.602;2023-02-08T04:47:36;63249.78;;;1.26;81.23
41636;BME280;27623;51.966;4.602;2023-02-08T04:50:02;63237.91;;;1.08;81.79
41636;BME280;27623;51.966;4.602;2023-02-08T04:52:28;63220.75;;;1.20;81.71
41636;BME280;27623;51.966;4.602;2023-02-08T04:54:53;63244.06;;;1.23;81.42
41636;BME280;27623;51.966;4.602;2023-02-08T04:57:18;63243.13;;;1.17;81.91
41636;BME280;27623;51.966;4.602;2023-02-08T04:59:44;63283.81;;;1.25;80.75
41636;BME280;27623;51.966;4.602;2023-02-08T05:02:09;63262.50;;;1.21;79.99
41636;BME280;27623;51.966;4.602;2023-02-08T05:04:35;63238.84;;;1.27;80.04
41636;BME280;27623;51.966;4.602;2023-02-08T05:07:00;63245.50;;;1.29;80.57
41636;BME280;27623;51.966;4.602;2023-02-08T05:09:26;63232.00;;;1.09;80.75
41636;BME280;27623;51.966;4.602;2023-02-08T05:11:51;63279.38;;;1.32;80.37
41636;BME280;27623;51.966;4.602;2023-02-08T05:14:17;63250.31;;;1.19;80.63
41636;BME280;27623;51.966;4.602;2023-02-08T05:16:42;63266.09;;;1.29;80.93
41636;BME280;27623;51.966;4.602;2023-02-08T05:19:09;63245.16;;;1.31;80.54
41636;BME280;27623;51.966;4.602;2023-02-08T05:21:35;63233.25;;;1.13;81.41
41636;BME280;27623;51.966;4.602;2023-02-08T05:24:01;63242.44;;;1.21;81.87
41636;BME280;27623;51.966;4.602;2023-02-08T05:26:28;63244.91;;;1.14;82.08
41636;BME280;27623;51.966;4.602;2023-02-08T05:28:54;63240.41;;;1.00;81.84
41636;BME280;27623;51.966;4.602;2023-02-08T05:31:22;63267.88;;;1.26;81.58
41636;BME280;27623;51.966;4.602;2023-02-08T05:33:48;63297.63;;;1.21;82.15
41636;BME280;27623;51.966;4.602;2023-02-08T05:36:14;63209.47;;;1.23;81.99
41636;BME280;27623;51.966;4.602;2023-02-08T05:38:40;63270.03;;;1.21;81.94
41636;BME280;27623;51.966;4.602;2023-02-08T05:41:05;63249.44;;;1.28;81.56
41636;BME280;27623;51.966;4.602;2023-02-08T05:43:31;63258.22;;;1.24;81.49
41636;BME280;27623;51.966;4.602;2023-02-08T05:45:56;63245.66;;;1.17;81.67
41636;BME280;27623;51.966;4.602;2023-02-08T05:48:22;63233.63;;;1.18;82.08
41636;BME280;27623;51.966;4.602;2023-02-08T05:50:47;63232.91;;;1.15;81.62
41636;BME280;27623;51.966;4.602;2023-02-08T05:53:13;63277.22;;;1.23;81.88
41636;BME280;27623;51.966;4.602;2023-02-08T05:55:38;63249.38;;;1.14;81.92
41636;BME280;27623;51.966;4.602;2023-02-08T05:58:03;63254.06;;;1.16;81.76
41636;BME280;27623;51.966;4.602;2023-02-08T06:00:29;63214.44;;;1.02;82.39
41636;BME280;27623;51.966;4.602;2023-02-08T06:02:56;63198.34;;;0.68;83.15
41636;BME280;27623;51.966;4.602;2023-02-08T06:05:22;63217.97;;;0.96;83.45
41636;BME280;27623;51.966;4.602;2023-02-08T06:07:47;63224.44;;;0.95;83.02
41636;BME280;27623;51.966;4.602;2023-02-08T06:10:13;63207.75;;;0.93;82.49
41636;BME280;27623;51.966;4.602;2023-02-08T06:12:38;63209.75;;;1.00;82.77
41636;BME280;27623;51.966;4.602;2023-02-08T06:15:03;63202.19;;;0.93;82.65
41636;BME280;27623;51.966;4.602;2023-02-08T06:17:31;63237.63;;;0.84;83.72
41636;BME280;27623;51.966;4.602;2023-02-08T06:19:57;63213.31;;;0.94;82.08
41636;BME280;27623;51.966;4.602;2023-02-08T06:22:22;63214.72;;;0.86;83.45
41636;BME280;27623;51.966;4.602;2023-02-08T06:24:51;63223.56;;;1.03;82.44
41636;BME280;27623;51.966;4.602;2023-02-08T06:27:16;63188.50;;;0.71;82.45
41636;BME280;27623;51.966;4.602;2023-02-08T06:29:41;63193.69;;;0.66;84.14
41636;BME280;27623;51.966;4.602;2023-02-08T06:32:07;63205.03;;;0.77;83.87
41636;BME280;27623;51.966;4.602;2023-02-08T06:34:32;63210.16;;;0.65;84.12
41636;BME280;27623;51.966;4.602;2023-02-08T06:36:58;63164.97;;;0.44;85.08
41636;BME280;27623;51.966;4.602;2023-02-08T06:39:27;63246.41;;;0.80;84.51
41636;BME280;27623;51.966;4.602;2023-02-08T06:41:53;63237.50;;;0.95;83.45
41636;BME280;27623;51.966;4.602;2023-02-08T06:44:19;63214.25;;;1.07;82.51
41636;BME280;27623;51.966;4.602;2023-02-08T06:46:45;63229.28;;;0.99;82.04
41636;BME280;27623;51.966;4.602;2023-02-08T06:49:11;63257.22;;;1.04;81.86
41636;BME280;27623;51.966;4.602;2023-02-08T06:51:36;63251.16;;;1.11;80.82
41636;BME280;27623;51.966;4.602;2023-02-08T06:54:03;63204.00;;;0.97;81.21
41636;BME280;27623;51.966;4.602;2023-02-08T06:56:29;63222.22;;;0.86;81.61
41636;BME280;27623;51.966;4.602;2023-02-08T06:58:56;63216.88;;;0.88;81.62
41636;BME280;27623;51.966;4.602;2023-02-08T07:01:21;63187.81;;;0.75;82.21
41636;BME280;27623;51.966;4.602;2023-02-08T07:03:46;63210.78;;;0.87;81.47
41636;BME280;27623;51.966;4.602;2023-02-08T07:06:13;63191.66;;;0.99;81.05
41636;BME280;27623;51.966;4.602;2023-02-08T07:08:39;63223.09;;;0.77;81.54
41636;BME280;27623;51.966;4.602;2023-02-08T07:11:09;63230.97;;;0.75;82.25
41636;BME280;27623;51.966;4.602;2023-02-08T07:13:35;63229.16;;;0.71;82.31
41636;BME280;27623;51.966;4.602;2023-02-08T07:16:04;63181.13;;;0.59;83.23
41636;BME280;27623;51.966;4.602;2023-02-08T07:18:30;63190.63;;;0.65;82.66
41636;BME280;27623;51.966;4.602;2023-02-08T07:20:56;63197.06;;;0.57;83.47
41636;BME280;27623;51.966;4.602;2023-02-08T07:23:21;63204.78;;;0.67;82.59
41636;BME280;27623;51.966;4.602;2023-02-08T07:26:07;63201.81;;;0.81;82.51
41636;BME280;27623;51.966;4.602;2023-02-08T07:28:37;63187.59;;;0.65;82.52
41636;BME280;27623;51.966;4.602;2023-02-08T07:31:07;63189.19;;;0.59;83.07
41636;BME280;27623;51.966;4.602;2023-02-08T07:33:33;63183.50;;;0.71;83.02
41636;BME280;27623;51.966;4.602;2023-02-08T07:35:59;63190.44;;;0.63;83.61
41636;BME280;27623;51.966;4.602;2023-02-08T07:38:24;63192.41;;;0.62;83.55
41636;BME280;27623;51.966;4.602;2023-02-08T07:40:49;63191.91;;;0.62;82.60
41636;BME280;27623;51.966;4.602;2023-02-08T07:43:15;63186.72;;;0.66;83.29
41636;BME280;27623;51.966;4.602;2023-02-08T07:45:40;63262.38;;;0.93;81.84
41636;BME280;27623;51.966;4.602;2023-02-08T07:48:06;63225.63;;;0.77;82.05
41636;BME280;27623;51.966;4.602;2023-02-08T07:50:31;63156.41;;;0.50;83.32
41636;BME280;27623;51.966;4.602;2023-02-08T07:52:59;63165.53;;;0.51;82.95
41636;BME280;27623;51.966;4.602;2023-02-08T07:55:27;63188.31;;;0.61;84.06
41636;BME280;27623;51.966;4.602;2023-02-08T07:57:54;63157.47;;;0.51;83.94
41636;BME280;27623;51.966;4.602;2023-02-08T08:00:20;63190.63;;;0.65;84.15
41636;BME280;27623;51.966;4.602;2023-02-08T08:02:45;63199.03;;;0.57;83.89
41636;BME280;27623;51.966;4.602;2023-02-08T08:05:10;63159.69;;;0.20;84.03
41636;BME280;27623;51.966;4.602;2023-02-08T08:07:36;63123.91;;;0.17;85.49
41636;BME280;27623;51.966;4.602;2023-02-08T08:10:02;63159.25;;;0.48;85.31
41636;BME280;27623;51.966;4.602;2023-02-08T08:12:27;63161.91;;;0.43;85.25
41636;BME280;27623;51.966;4.602;2023-02-08T08:14:52;63147.28;;;0.08;85.34
41636;BME280;27623;51.966;4.602;2023-02-08T08:17:18;63143.16;;;-0.01;86.58
41636;BME280;27623;51.966;4.602;2023-02-08T08:19:43;63138.41;;;0.23;85.96
41636;BME280;27623;51.966;4.602;2023-02-08T08:22:09;63168.66;;;0.26;86.03
41636;BME280;27623;51.966;4.602;2023-02-08T08:24:34;63143.59;;;0.19;86.57
41636;BME280;27623;51.966;4.602;2023-02-08T08:27:04;63160.81;;;0.35;86.12
41636;BME280;27623;51.966;4.602;2023-02-08T08:29:31;63159.72;;;0.27;86.20
41636;BME280;27623;51.966;4.602;2023-02-08T08:31:56;63189.41;;;0.29;86.81
41636;BME280;27623;51.966;4.602;2023-02-08T08:34:22;63146.25;;;0.21;86.98
41636;BME280;27623;51.966;4.602;2023-02-08T08:36:56;63131.97;;;0.24;86.95
41636;BME280;27623;51.966;4.602;2023-02-08T08:39:22;63185.81;;;0.61;87.15
41636;BME280;27623;51.966;4.602;2023-02-08T08:41:47;63160.28;;;0.34;86.38
41636;BME280;27623;51.966;4.602;2023-02-08T08:44:13;63195.06;;;0.51;86.93
41636;BME280;27623;51.966;4.602;2023-02-08T08:46:38;63211.81;;;0.74;86.24
41636;BME280;27623;51.966;4.602;2023-02-08T08:49:04;63173.06;;;0.51;87.11
41636;BME280;27623;51.966;4.602;2023-02-08T08:51:32;63159.09;;;0.52;87.14
41636;BME280;27623;51.966;4.602;2023-02-08T08:54:03;63198.50;;;0.56;86.39
41636;BME280;27623;51.966;4.602;2023-02-08T08:56:30;63194.53;;;0.50;88.05
41636;BME280;27623;51.966;4.602;2023-02-08T08:58:55;63163.75;;;0.54;87.21
41636;BME280;27623;51.966;4.602;2023-02-08T09:01:21;63163.94;;;0.57;87.60
41636;BME280;27623;51.966;4.602;2023-02-08T09:03:46;63232.06;;;0.83;87.16
41636;BME280;27623;51.966;4.602;2023-02-08T09:06:12;63253.28;;;0.98;87.00
41636;BME280;27623;51.966;4.602;2023-02-08T09:08:37;63213.66;;;0.92;85.99
41636;BME280;27623;51.966;4.602;2023-02-08T09:11:07;63232.81;;;0.86;87.04
41636;BME280;27623;51.966;4.602;2023-02-08T09:13:32;63229.63;;;0.97;87.97
41636;BME280;27623;51.966;4.602;2023-02-08T09:15:58;63242.00;;;1.02;87.88
41636;BME280;27623;51.966;4.602;2023-02-08T09:18:23;63191.47;;;0.97;87.88
41636;BME280;27623;51.966;4.602;2023-02-08T09:20:49;63238.81;;;1.13;86.44
41636;BME280;27623;51.966;4.602;2023-02-08T09:23:14;63251.03;;;1.22;86.33
41636;BME280;27623;51.966;4.602;2023-02-08T09:25:40;63281.03;;;1.41;86.41
41636;BME280;27623;51.966;4.602;2023-02-08T09:28:07;63260.97;;;1.48;85.46
41636;BME280;27623;51.966;4.602;2023-02-08T09:30:33;63343.53;;;1.71;86.01
41636;BME280;27623;51.966;4.602;2023-02-08T09:32:58;63377.91;;;2.01;85.06
41636;BME280;27623;51.966;4.602;2023-02-08T09:35:24;63360.88;;;2.09;83.57
41636;BME280;27623;51.966;4.602;2023-02-08T09:37:52;63346.94;;;2.24;84.57
41636;BME280;27623;51.966;4.602;2023-02-08T09:40:32;63369.22;;;2.33;84.13
41636;BME280;27623;51.966;4.602;2023-02-08T09:43:09;63399.78;;;2.46;82.94
41636;BME280;27623;51.966;4.602;2023-02-08T09:45:47;63394.22;;;2.52;82.54
41636;BME280;27623;51.966;4.602;2023-02-08T09:48:21;63392.06;;;2.50;82.34
41636;BME280;27623;51.966;4.602;2023-02-08T09:53:24;63414.38;;;2.73;82.14
41636;BME280;27623;51.966;4.602;2023-02-08T09:55:55;63423.06;;;2.96;81.28
41636;BME280;27623;51.966;4.602;2023-02-08T10:01:04;63470.78;;;3.29;79.97
41636;BME280;27623;51.966;4.602;2023-02-08T10:03:37;63506.59;;;3.43;80.38
41636;BME280;27623;51.966;4.602;2023-02-08T10:06:09;63557.00;;;3.65;80.01
41636;BME280;27623;51.966;4.602;2023-02-08T10:08:36;63530.75;;;3.78;78.20
41636;BME280;27623;51.966;4.602;2023-02-08T10:13:38;63584.47;;;4.17;75.96
41636;BME280;27623;51.966;4.602;2023-02-08T10:35:14;63715.31;;;5.30;70.25
41636;BME280;27623;51.966;4.602;2023-02-08T10:37:42;63712.09;;;5.55;70.71
41636;BME280;27623;51.966;4.602;2023-02-08T10:40:18;63744.03;;;5.85;68.89
41636;BME280;27623;51.966;4.602;2023-02-08T10:42:53;63739.88;;;5.83;68.23
41636;BME280;27623;51.966;4.602;2023-02-08T10:45:30;63781.28;;;6.17;67.46
41636;BME280;27623;51.966;4.602;2023-02-08T10:48:06;63837.47;;;6.32;66.11
41636;BME280;27623;51.966;4.602;2023-02-08T10:50:35;63768.81;;;6.06;65.05
41636;BME280;27623;51.966;4.602;2023-02-08T10:53:02;63825.38;;;6.40;65.83
41636;BME280;27623;51.966;4.602;2023-02-08T10:55:29;63834.41;;;6.46;65.09
41636;BME280;27623;51.966;4.602;2023-02-08T10:57:58;63910.38;;;7.03;64.20
41636;BME280;27623;51.966;4.602;2023-02-08T11:00:27;63848.34;;;6.42;63.88
41636;BME280;27623;51.966;4.602;2023-02-08T11:02:54;63826.09;;;6.57;63.68
41636;BME280;27623;51.966;4.602;2023-02-08T11:08:09;63921.41;;;7.15;61.50
41636;BME280;27623;51.966;4.602;2023-02-08T11:10:36;63937.13;;;7.51;60.93
41636;BME280;27623;51.966;4.602;2023-02-08T11:13:18;64000.88;;;7.99;60.52
41636;BME280;27623;51.966;4.602;2023-02-08T11:15:50;63981.69;;;7.86;58.54
41636;BME280;27623;51.966;4.602;2023-02-08T11:18:22;63958.09;;;7.90;55.32
41636;BME280;27623;51.966;4.602;2023-02-08T11:20:51;63996.13;;;8.11;56.08
41636;BME280;27623;51.966;4.602;2023-02-08T11:23:47;64007.19;;;8.24;56.89
41636;BME280;27623;51.966;4.602;2023-02-08T11:26:36;64021.47;;;8.54;55.51
41636;BME280;27623;51.966;4.602;2023-02-08T11:34:38;64019.31;;;8.45;54.41
41636;BME280;27623;51.966;4.602;2023-02-08T11:39:44;64195.22;;;9.47;51.39
41636;BME280;27623;51.966;4.602;2023-02-08T11:42:20;64098.81;;;9.28;51.70
41636;BME280;27623;51.966;4.602;2023-02-08T11:44:47;64201.88;;;9.77;49.28
41636;BME280;27623;51.966;4.602;2023-02-08T11:47:17;64174.47;;;9.71;49.54
41636;BME280;27623;51.966;4.602;2023-02-08T11:49:56;64225.16;;;9.75;48.77
41636;BME280;27623;51.966;4.602;2023-02-08T11:52:31;64189.53;;;9.75;49.19
41636;BME280;27623;51.966;4.602;2023-02-08T11:58:02;64159.41;;;9.66;45.53
41636;BME280;27623;51.966;4.602;2023-02-08T12:00:31;64296.44;;;10.77;46.25
41636;BME280;27623;51.966;4.602;2023-02-08T12:03:04;64295.78;;;10.53;44.97
41636;BME280;27623;51.966;4.602;2023-02-08T12:11:01;64361.88;;;11.10;40.56
41636;BME280;27623;51.966;4.602;2023-02-08T12:21:48;64301.16;;;10.79;37.18
41636;BME280;27623;51.966;4.602;2023-02-08T12:29:38;64243.09;;;10.20;35.71
41636;BME280;27623;51.966;4.602;2023-02-08T12:37:44;64411.09;;;11.79;37.15
41636;BME280;27623;51.966;4.602;2023-02-08T12:40:50;64462.31;;;12.27;36.46
41636;BME280;27623;51.966;4.602;2023-02-08T12:43:27;64484.31;;;12.50;36.04
41636;BME280;27623;51.966;4.602;2023-02-08T12:51:50;64474.16;;;12.35;35.29
41636;BME280;27623;51.966;4.602;2023-02-08T12:54:36;64458.72;;;12.19;33.91
41636;BME280;27623;51.966;4.602;2023-02-08T12:57:08;64528.50;;;12.91;34.18
41636;BME280;27623;51.966;4.602;2023-02-08T12:59:43;64555.34;;;12.94;32.30
41636;BME280;27623;51.966;4.602;2023-02-08T13:04:44;64492.56;;;12.43;32.71
41636;BME280;27623;51.966;4.602;2023-02-08T13:07:32;64487.91;;;12.20;32.62
41636;BME280;27623;51.966;4.602;2023-02-08T13:12:40;64518.56;;;12.72;35.74
41636;BME280;27623;51.966;4.602;2023-02-08T13:15:16;64532.34;;;12.94;35.17
41636;BME280;27623;51.966;4.602;2023-02-08T13:17:56;64433.19;;;12.12;36.11
41636;BME280;27623;51.966;4.602;2023-02-08T13:25:47;64491.31;;;12.39;35.45
41636;BME280;27623;51.966;4.602;2023-02-08T13:28:20;64493.50;;;12.42;33.96
41636;BME280;27623;51.966;4.602;2023-02-08T13:30:54;64606.88;;;13.45;34.40
41636;BME280;27623;51.966;4.602;2023-02-08T13:33:50;64689.56;;;14.24;31.25
41636;BME280;27623;51.966;4.602;2023-02-08T13:36:23;64698.88;;;14.25;31.69
41636;BME280;27623;51.966;4.602;2023-02-08T13:38:49;64653.06;;;13.99;29.55
41636;BME280;27623;51.966;4.602;2023-02-08T13:41:18;64596.84;;;13.40;30.03
41636;BME280;27623;51.966;4.602;2023-02-08T13:44:02;64670.59;;;14.08;30.02
41636;BME280;27623;51.966;4.602;2023-02-08T13:46:44;64600.31;;;13.46;29.23
41636;BME280;27623;51.966;4.602;2023-02-08T14:06:01;64735.91;;;14.57;30.82
41636;BME280;27623;51.966;4.602;2023-02-08T14:14:05;64763.41;;;14.85;29.36
41636;BME280;27623;51.966;4.602;2023-02-08T14:16:35;64834.53;;;15.51;28.57
41636;BME280;27623;51.966;4.602;2023-02-08T14:19:20;64916.72;;;15.89;28.73
41636;BME280;27623;51.966;4.602;2023-02-08T14:22:02;64850.88;;;15.57;27.64
41636;BME280;27623;51.966;4.602;2023-02-08T14:24:33;64907.13;;;15.68;28.67
41636;BME280;27623;51.966;4.602;2023-02-08T14:29:34;64764.06;;;14.71;29.71
41636;BME280;27623;51.966;4.602;2023-02-08T14:32:00;64665.16;;;13.96;29.74
41636;BME280;27623;51.966;4.602;2023-02-08T14:34:32;64830.63;;;15.31;31.42
41636;BME280;27623;51.966;4.602;2023-02-08T14:39:35;64722.94;;;14.55;33.45
41636;BME280;27623;51.966;4.602;2023-02-08T14:42:05;64772.81;;;15.10;34.21
41636;BME280;27623;51.966;4.602;2023-02-08T14:47:02;64755.59;;;14.75;35.38
41636;BME280;27623;51.966;4.602;2023-02-08T14:49:35;64761.19;;;14.90;35.45
41636;BME280;27623;51.966;4.602;2023-02-08T14:52:11;64748.84;;;14.98;34.73
41636;BME280;27623;51.966;4.602;2023-02-08T14:54:45;64648.22;;;13.81;36.04
41636;BME280;27623;51.966;4.602;2023-02-08T14:57:24;64743.09;;;14.81;35.01
41636;BME280;27623;51.966;4.602;2023-02-08T14:59:52;64769.56;;;15.00;35.55
41636;BME280;27623;51.966;4.602;2023-02-08T15:02:21;64784.75;;;15.05;35.82
41636;BME280;27623;51.966;4.602;2023-02-08T15:04:50;64720.06;;;14.73;34.50
41636;BME280;27623;51.966;4.602;2023-02-08T15:09:44;64719.31;;;14.39;36.45
41636;BME280;27623;51.966;4.602;2023-02-08T15:12:25;64678.28;;;14.08;34.13
41636;BME280;27623;51.966;4.602;2023-02-08T15:14:53;64660.22;;;13.99;35.75
41636;BME280;27623;51.966;4.602;2023-02-08T15:19:57;64597.56;;;13.43;36.18
41636;BME280;27623;51.966;4.602;2023-02-08T15:24:55;64516.66;;;12.89;37.90
41636;BME280;27623;51.966;4.602;2023-02-08T15:27:28;64621.00;;;13.72;36.30
41636;BME280;27623;51.966;4.602;2023-02-08T15:29:54;64659.09;;;14.05;35.55
41636;BME280;27623;51.966;4.602;2023-02-08T15:32:22;64555.25;;;13.54;36.52
41636;BME280;27623;51.966;4.602;2023-02-08T15:34:56;64583.22;;;13.58;37.49
41636;BME280;27623;51.966;4.602;2023-02-08T15:37:23;64651.56;;;14.07;37.39
41636;BME280;27623;51.966;4.602;2023-02-08T15:39:57;64590.00;;;13.53;36.81
41636;BME280;27623;51.966;4.602;2023-02-08T15:42:27;64547.56;;;13.30;37.68
41636;BME280;27623;51.966;4.602;2023-02-08T15:44:56;64511.16;;;12.91;39.15
41636;BME280;27623;51.966;4.602;2023-02-08T15:47:30;64584.69;;;13.19;38.28
41636;BME280;27623;51.966;4.602;2023-02-08T15:49:57;64604.59;;;13.64;38.05
41636;BME280;27623;51.966;4.602;2023-02-08T15:52:25;64586.53;;;13.54;36.89
41636;BME280;27623;51.966;4.602;2023-02-08T15:54:51;64519.81;;;13.21;38.05
41636;BME280;27623;51.966;4.602;2023-02-08T15:57:33;64569.69;;;13.24;37.91
41636;BME280;27623;51.966;4.602;2023-02-08T16:00:02;64522.81;;;13.04;38.83